createdAt,value
2018-09-12T00:00:48.183Z,17.54
2018-09-12T00:01:48.165Z,17.44
2018-09-12T00:02:48.201Z,17.56
2018-09-12T00:03:48.150Z,17.47
2018-09-12T00:04:48.125Z,17.56
2018-09-12T00:05:48.134Z,17.52
2018-09-12T00:06:48.109Z,17.46
2018-09-12T00:07:48.144Z,17.53
2018-09-12T00:08:48.104Z,17.44
2018-09-12T00:09:48.077Z,17.39
2018-09-12T00:10:48.061Z,17.44
2018-09-12T00:11:48.051Z,17.42
2018-09-12T00:12:48.069Z,17.52
2018-09-12T00:13:48.071Z,17.46
2018-09-12T00:14:48.034Z,17.52
2018-09-12T00:15:48.009Z,17.35
2018-09-12T00:16:47.993Z,17.42
2018-09-12T00:17:47.996Z,17.42
2018-09-12T00:18:48.026Z,17.41
2018-09-12T00:19:47.972Z,17.42
2018-09-12T00:20:47.965Z,17.38
2018-09-12T00:21:47.950Z,17.42
2018-09-12T00:22:47.936Z,17.38
2018-09-12T00:23:47.960Z,17.42
2018-09-12T00:24:47.918Z,17.46
2018-09-12T00:25:47.908Z,17.41
2018-09-12T00:26:47.900Z,17.39
2018-09-12T00:27:47.880Z,17.46
2018-09-12T00:28:47.937Z,17.38
2018-09-12T00:29:47.858Z,17.46
2018-09-12T00:30:47.852Z,17.35
2018-09-12T00:31:47.835Z,17.38
2018-09-12T00:32:47.830Z,17.34
2018-09-12T00:33:47.846Z,17.39
2018-09-12T00:34:47.822Z,17.30
2018-09-12T00:35:47.785Z,17.32
2018-09-12T00:36:47.782Z,17.38
2018-09-12T00:37:47.767Z,17.37
2018-09-12T00:38:47.748Z,17.35
2018-09-12T00:39:47.769Z,17.34
2018-09-12T00:40:47.738Z,17.31
2018-09-12T00:41:47.720Z,17.38
2018-09-12T00:42:47.724Z,17.34
2018-09-12T00:43:47.697Z,17.38
2018-09-12T00:44:47.739Z,17.34
2018-09-12T00:45:47.677Z,17.38
2018-09-12T00:46:47.660Z,17.30
2018-09-12T00:47:47.654Z,17.35
2018-09-12T00:48:47.637Z,17.32
2018-09-12T00:49:47.676Z,17.37
2018-09-12T00:50:47.667Z,17.32
2018-09-12T00:51:47.615Z,17.32
2018-09-12T00:52:47.603Z,17.31
2018-09-12T00:53:47.592Z,17.23
2018-09-12T00:54:47.591Z,17.20
2018-09-12T00:55:47.611Z,17.20
2018-09-12T00:56:47.564Z,17.13
2018-09-12T00:57:47.550Z,17.09
2018-09-12T00:58:47.540Z,17.04
2018-09-12T00:59:47.538Z,17.12
2018-09-12T01:00:47.566Z,17.02
2018-09-12T01:01:47.499Z,16.99
2018-09-12T01:02:47.491Z,16.97
2018-09-12T01:03:47.490Z,16.91
2018-09-12T01:04:47.471Z,16.94
2018-09-12T01:05:47.488Z,16.92
2018-09-12T01:06:47.445Z,16.97
2018-09-12T01:07:47.438Z,16.95
2018-09-12T01:08:47.424Z,16.83
2018-09-12T01:09:47.416Z,16.82
2018-09-12T01:10:47.446Z,16.86
2018-09-12T01:11:47.422Z,16.86
2018-09-12T01:12:47.386Z,16.84
2018-09-12T01:13:47.373Z,16.87
2018-09-12T01:14:47.354Z,16.76
2018-09-12T01:15:47.349Z,16.76
2018-09-12T01:16:47.378Z,16.79
2018-09-12T01:17:47.334Z,16.73
2018-09-12T01:18:47.306Z,16.79
2018-09-12T01:19:47.305Z,16.74
2018-09-12T01:20:47.332Z,16.69
2018-09-12T01:21:47.273Z,16.69
2018-09-12T01:22:47.302Z,16.73
2018-09-12T01:23:47.243Z,16.51
2018-09-12T01:24:47.237Z,16.62
2018-09-12T01:25:47.225Z,16.59
2018-09-12T01:26:47.213Z,16.58
2018-09-12T01:27:47.240Z,16.62
2018-09-12T01:28:47.201Z,16.55
2018-09-12T01:29:47.180Z,16.57
2018-09-12T01:30:47.172Z,16.61
2018-09-12T01:31:47.228Z,16.49
2018-09-12T01:32:47.157Z,16.51
2018-09-12T01:33:47.166Z,16.49
2018-09-12T01:34:47.145Z,16.54
2018-09-12T01:35:47.112Z,16.43
2018-09-12T01:36:47.099Z,16.49
2018-09-12T01:37:47.133Z,16.46
2018-09-12T01:38:47.120Z,16.44
2018-09-12T01:39:47.080Z,16.36
2018-09-12T01:40:47.051Z,16.44
2018-09-12T01:41:47.048Z,16.41
2018-09-12T01:42:47.031Z,16.41
2018-09-12T01:43:47.051Z,16.43
2018-09-12T01:44:47.009Z,16.40
2018-09-12T01:45:47.020Z,16.37
2018-09-12T01:46:46.985Z,16.37
2018-09-12T01:47:46.979Z,16.39
2018-09-12T01:48:47.027Z,16.32
2018-09-12T01:49:46.953Z,16.41
2018-09-12T01:50:46.944Z,16.31
2018-09-12T01:51:46.945Z,16.41
2018-09-12T01:52:46.919Z,16.37
2018-09-12T01:53:46.951Z,16.40
2018-09-12T01:54:46.909Z,16.43
2018-09-12T01:55:46.898Z,16.32
2018-09-12T01:56:46.896Z,16.34
2018-09-12T01:57:46.874Z,16.29
2018-09-12T01:58:46.897Z,16.28
2018-09-12T01:59:46.881Z,16.40
2018-09-12T02:00:46.848Z,16.29
2018-09-12T02:01:46.830Z,16.39
2018-09-12T02:02:46.820Z,16.40
2018-09-12T02:03:46.806Z,16.29
2018-09-12T02:04:46.829Z,16.34
2018-09-12T02:05:46.784Z,16.32
2018-09-12T02:06:46.772Z,16.28
2018-09-12T02:07:46.760Z,16.28
2018-09-12T02:08:46.762Z,16.39
2018-09-12T02:09:46.784Z,16.37
2018-09-12T02:10:46.721Z,16.39
2018-09-12T02:11:46.719Z,16.28
2018-09-12T02:12:46.709Z,16.31
2018-09-12T02:13:46.702Z,16.34
2018-09-12T02:14:46.720Z,16.28
2018-09-12T02:15:46.669Z,16.29
2018-09-12T02:16:46.659Z,16.28
2018-09-12T02:17:46.680Z,16.36
2018-09-12T02:18:46.672Z,16.34
2018-09-12T02:19:46.676Z,16.25
2018-09-12T02:20:46.606Z,16.29
2018-09-12T02:21:46.610Z,16.17
2018-09-12T02:22:46.592Z,16.36
2018-09-12T02:23:46.576Z,16.26
2018-09-12T02:24:46.604Z,16.34
2018-09-12T02:25:46.584Z,16.28
2018-09-12T02:26:46.540Z,16.31
2018-09-12T02:27:46.573Z,16.34
2018-09-12T02:28:46.515Z,16.29
2018-09-12T02:29:46.508Z,16.26
2018-09-12T02:30:46.491Z,16.22
2018-09-12T02:31:46.477Z,16.13
2018-09-12T02:32:46.524Z,16.16
2018-09-12T02:33:46.458Z,16.16
2018-09-12T02:34:46.457Z,16.16
2018-09-12T02:35:46.437Z,16.10
2018-09-12T02:36:46.429Z,16.16
2018-09-12T02:37:46.446Z,16.21
2018-09-12T02:38:46.401Z,16.25
2018-09-12T02:39:46.390Z,16.13
2018-09-12T02:40:46.379Z,16.24
2018-09-12T02:41:46.404Z,16.17
2018-09-12T02:42:46.356Z,16.18
2018-09-12T02:43:46.379Z,16.13
2018-09-12T02:44:46.326Z,16.17
2018-09-12T02:45:46.356Z,16.13
2018-09-12T02:46:46.311Z,16.16
2018-09-12T02:47:46.304Z,16.13
2018-09-12T02:48:46.294Z,16.13
2018-09-12T02:49:46.312Z,16.16
2018-09-12T02:50:46.262Z,16.22
2018-09-12T02:51:46.288Z,16.21
2018-09-12T02:52:46.276Z,16.21
2018-09-12T02:53:46.239Z,16.22
2018-09-12T02:54:46.215Z,16.13
2018-09-12T02:55:46.214Z,16.17
2018-09-12T02:56:46.191Z,16.13
2018-09-12T02:57:46.229Z,16.08
2018-09-12T02:58:46.184Z,16.16
2018-09-12T02:59:46.215Z,16.18
2018-09-12T03:00:46.162Z,16.22
2018-09-12T03:01:46.144Z,16.10
2018-09-12T03:02:46.136Z,16.16
2018-09-12T03:03:46.140Z,16.13
2018-09-12T03:04:46.150Z,16.10
2018-09-12T03:05:46.102Z,16.08
2018-09-12T03:06:46.092Z,16.16
2018-09-12T03:07:46.189Z,16.08
2018-09-12T03:08:46.080Z,16.05
2018-09-12T03:09:46.058Z,16.05
2018-09-12T03:10:46.096Z,15.90
2018-09-12T03:11:46.076Z,15.92
2018-09-12T03:12:46.028Z,15.91
2018-09-12T03:13:46.018Z,15.90
2018-09-12T03:14:46.000Z,15.78
2018-09-12T03:15:45.994Z,15.73
2018-09-12T03:16:46.010Z,15.63
2018-09-12T03:17:45.969Z,15.72
2018-09-12T03:18:45.959Z,15.70
2018-09-12T03:19:45.944Z,15.60
2018-09-12T03:20:46.058Z,15.54
2018-09-12T03:21:45.967Z,15.60
2018-09-12T03:22:45.947Z,15.59
2018-09-12T03:23:45.896Z,15.55
2018-09-12T03:24:45.888Z,15.39
2018-09-12T03:25:45.888Z,15.39
2018-09-12T03:26:45.861Z,15.48
2018-09-12T03:27:45.881Z,15.50
2018-09-12T03:28:45.847Z,15.39
2018-09-12T03:29:45.826Z,15.41
2018-09-12T03:30:45.856Z,15.37
2018-09-12T03:31:45.802Z,15.36
2018-09-12T03:32:45.830Z,15.26
2018-09-12T03:33:45.779Z,15.26
2018-09-12T03:34:45.772Z,15.32
2018-09-12T03:35:45.761Z,15.23
2018-09-12T03:36:45.774Z,15.26
2018-09-12T03:37:45.734Z,15.26
2018-09-12T03:38:45.725Z,15.22
2018-09-12T03:39:45.709Z,15.12
2018-09-12T03:40:45.705Z,15.23
2018-09-12T03:41:45.744Z,15.11
2018-09-12T03:42:45.686Z,15.11
2018-09-12T03:43:45.664Z,15.18
2018-09-12T03:44:45.665Z,15.12
2018-09-12T03:45:45.642Z,15.14
2018-09-12T03:46:45.661Z,15.02
2018-09-12T03:47:45.624Z,15.04
2018-09-12T03:48:45.650Z,15.00
2018-09-12T03:49:45.606Z,15.02
2018-09-12T03:50:45.597Z,15.00
2018-09-12T03:51:45.571Z,15.02
2018-09-12T03:52:45.565Z,15.04
2018-09-12T03:53:45.592Z,14.99
2018-09-12T03:54:45.534Z,15.05
2018-09-12T03:55:45.535Z,15.00
2018-09-12T03:56:45.542Z,14.99
2018-09-12T03:57:45.515Z,15.02
2018-09-12T03:58:45.526Z,14.93
2018-09-12T03:59:45.490Z,15.00
2018-09-12T04:00:45.471Z,15.00
2018-09-12T04:01:45.476Z,15.02
2018-09-12T04:02:45.549Z,14.96
2018-09-12T04:03:45.448Z,14.89
2018-09-12T04:04:45.474Z,14.89
2018-09-12T04:05:45.426Z,14.96
2018-09-12T04:06:45.426Z,14.94
2018-09-12T04:07:45.411Z,14.93
2018-09-12T04:08:45.392Z,14.94
2018-09-12T04:09:45.432Z,14.96
2018-09-12T04:10:45.370Z,14.92
2018-09-12T04:11:45.358Z,14.92
2018-09-12T04:12:45.352Z,14.89
2018-09-12T04:13:45.338Z,14.87
2018-09-12T04:14:45.366Z,14.89
2018-09-12T04:15:45.309Z,14.82
2018-09-12T04:16:45.370Z,14.82
2018-09-12T04:17:45.295Z,14.86
2018-09-12T04:18:45.292Z,14.81
2018-09-12T04:19:45.306Z,14.81
2018-09-12T04:20:45.257Z,14.89
2018-09-12T04:21:45.304Z,14.86
2018-09-12T04:22:45.247Z,14.81
2018-09-12T04:23:45.221Z,14.79
2018-09-12T04:24:45.225Z,14.86
2018-09-12T04:25:45.201Z,14.87
2018-09-12T04:26:45.246Z,14.81
2018-09-12T04:27:45.179Z,14.85
2018-09-12T04:28:45.205Z,14.85
2018-09-12T04:29:45.169Z,14.86
2018-09-12T04:30:45.165Z,14.87
2018-09-12T04:31:45.206Z,14.87
2018-09-12T04:32:45.123Z,14.81
2018-09-12T04:33:45.109Z,14.89
2018-09-12T04:34:45.093Z,14.81
2018-09-12T04:35:45.094Z,14.79
2018-09-12T04:36:45.110Z,14.86
2018-09-12T04:37:45.060Z,14.81
2018-09-12T04:38:45.078Z,14.86
2018-09-12T04:39:45.041Z,14.85
2018-09-12T04:40:45.030Z,14.79
2018-09-12T04:41:45.022Z,14.85
2018-09-12T04:42:45.049Z,14.74
2018-09-12T04:43:44.989Z,14.77
2018-09-12T04:44:44.992Z,14.79
2018-09-12T04:45:44.985Z,14.81
2018-09-12T04:46:44.960Z,14.86
2018-09-12T04:47:44.980Z,14.86
2018-09-12T04:48:44.938Z,14.79
2018-09-12T04:49:44.936Z,14.87
2018-09-12T04:50:44.923Z,14.86
2018-09-12T04:51:44.913Z,14.86
2018-09-12T04:52:44.940Z,14.87
2018-09-12T04:53:44.898Z,14.89
2018-09-12T04:54:44.888Z,14.92
2018-09-12T04:55:44.866Z,14.93
2018-09-12T04:56:44.864Z,14.87
2018-09-12T04:57:44.880Z,14.86
2018-09-12T04:58:44.842Z,14.89
2018-09-12T04:59:44.886Z,14.85
2018-09-12T05:00:44.819Z,14.82
2018-09-12T05:01:44.807Z,14.89
2018-09-12T05:02:44.824Z,14.87
2018-09-12T05:03:44.784Z,14.92
2018-09-12T05:04:44.769Z,14.90
2018-09-12T05:05:44.752Z,14.93
2018-09-12T05:06:44.793Z,14.93
2018-09-12T05:07:44.725Z,14.87
2018-09-12T05:08:44.726Z,14.87
2018-09-12T05:09:44.707Z,14.89
2018-09-12T05:10:44.699Z,14.93
2018-09-12T05:11:44.720Z,14.92
2018-09-12T05:12:44.670Z,14.93
2018-09-12T05:13:44.670Z,14.90
2018-09-12T05:14:44.702Z,14.87
2018-09-12T05:15:44.642Z,14.94
2018-09-12T05:16:44.781Z,15.02
2018-09-12T05:17:44.616Z,14.94
2018-09-12T05:18:44.603Z,14.96
2018-09-12T05:19:44.590Z,14.96
2018-09-12T05:20:44.583Z,15.05
2018-09-12T05:21:44.608Z,15.04
2018-09-12T05:22:44.561Z,15.07
2018-09-12T05:23:44.591Z,15.07
2018-09-12T05:24:44.538Z,15.05
2018-09-12T05:25:44.572Z,15.04
2018-09-12T05:26:44.526Z,15.05
2018-09-12T05:27:44.521Z,15.04
2018-09-12T05:28:44.497Z,15.07
2018-09-12T05:29:44.485Z,14.99
2018-09-12T05:30:44.501Z,15.02
2018-09-12T05:31:44.460Z,14.99
2018-09-12T05:32:44.455Z,15.08
2018-09-12T05:33:44.457Z,15.07
2018-09-12T05:34:44.430Z,15.08
2018-09-12T05:35:44.463Z,15.08
2018-09-12T05:36:44.440Z,15.07
2018-09-12T05:37:44.411Z,14.97
2018-09-12T05:38:44.396Z,15.02
2018-09-12T05:39:44.380Z,15.08
2018-09-12T05:40:44.368Z,15.08
2018-09-12T05:41:44.389Z,15.08
2018-09-12T05:42:44.341Z,15.10
2018-09-12T05:43:44.370Z,15.05
2018-09-12T05:44:44.335Z,15.02
2018-09-12T05:45:44.338Z,14.93
2018-09-12T05:46:44.306Z,14.89
2018-09-12T05:47:44.306Z,14.86
2018-09-12T05:48:44.334Z,14.86
2018-09-12T05:49:44.266Z,14.87
2018-09-12T05:50:44.261Z,14.87
2018-09-12T05:51:44.294Z,14.93
2018-09-12T05:52:44.244Z,14.87
2018-09-12T05:53:44.219Z,14.96
2018-09-12T05:54:44.214Z,14.93
2018-09-12T05:55:44.208Z,14.89
2018-09-12T05:56:44.224Z,14.89
2018-09-12T05:57:44.182Z,14.90
2018-09-12T05:58:44.210Z,14.82
2018-09-12T05:59:44.159Z,14.93
2018-09-12T06:00:44.145Z,14.89
2018-09-12T06:01:44.166Z,14.94
2018-09-12T06:02:44.128Z,14.96
2018-09-12T06:03:44.158Z,14.92
2018-09-12T06:04:44.149Z,14.93
2018-09-12T06:05:44.090Z,14.92
2018-09-12T06:06:44.154Z,14.92
2018-09-12T06:07:44.075Z,14.90
2018-09-12T06:08:44.125Z,14.90
2018-09-12T06:09:44.038Z,14.93
2018-09-12T06:10:44.025Z,14.94
2018-09-12T06:11:44.030Z,14.89
2018-09-12T06:12:44.008Z,14.89
2018-09-12T06:13:44.059Z,14.85
2018-09-12T06:14:43.984Z,14.77
2018-09-12T06:15:43.970Z,14.82
2018-09-12T06:16:43.966Z,14.79
2018-09-12T06:17:43.983Z,14.79
2018-09-12T06:18:43.941Z,14.81
2018-09-12T06:19:43.931Z,14.78
2018-09-12T06:20:43.958Z,14.89
2018-09-12T06:21:43.912Z,14.90
2018-09-12T06:22:43.899Z,14.93
2018-09-12T06:23:43.891Z,14.92
2018-09-12T06:24:43.875Z,14.89
2018-09-12T06:25:43.903Z,15.00
2018-09-12T06:26:43.849Z,14.94
2018-09-12T06:27:43.839Z,14.97
2018-09-12T06:28:43.830Z,15.04
2018-09-12T06:29:43.812Z,15.07
2018-09-12T06:30:43.899Z,15.02
2018-09-12T06:31:43.812Z,14.96
2018-09-12T06:32:43.816Z,15.08
2018-09-12T06:33:43.792Z,15.05
2018-09-12T06:34:43.758Z,15.05
2018-09-12T06:35:43.749Z,15.12
2018-09-12T06:36:43.748Z,15.11
2018-09-12T06:37:43.788Z,15.12
2018-09-12T06:38:43.768Z,15.17
2018-09-12T06:39:43.704Z,15.27
2018-09-12T06:40:43.762Z,15.26
2018-09-12T06:41:43.730Z,15.35
2018-09-12T06:42:43.712Z,15.29
2018-09-12T06:43:43.672Z,15.25
2018-09-12T06:44:43.807Z,15.32
2018-09-12T06:45:43.676Z,15.25
2018-09-12T06:46:43.640Z,15.36
2018-09-12T06:47:43.619Z,15.36
2018-09-12T06:48:43.646Z,15.39
2018-09-12T06:49:43.596Z,15.35
2018-09-12T06:50:43.592Z,15.33
2018-09-12T06:51:43.592Z,15.37
2018-09-12T06:52:43.561Z,15.44
2018-09-12T06:53:43.598Z,15.44
2018-09-12T06:54:43.560Z,15.50
2018-09-12T06:55:43.536Z,15.43
2018-09-12T06:56:43.517Z,15.55
2018-09-12T06:57:43.516Z,15.54
2018-09-12T06:58:43.542Z,15.55
2018-09-12T06:59:43.487Z,15.54
2018-09-12T07:00:43.604Z,15.50
2018-09-12T07:01:43.502Z,15.59
2018-09-12T07:02:43.452Z,15.54
2018-09-12T07:03:43.440Z,15.52
2018-09-12T07:04:43.464Z,15.55
2018-09-12T07:05:43.450Z,15.59
2018-09-12T07:06:43.409Z,15.60
2018-09-12T07:07:43.432Z,15.65
2018-09-12T07:08:43.392Z,15.85
2018-09-12T07:09:43.372Z,15.81
2018-09-12T07:10:43.364Z,15.81
2018-09-12T07:11:43.382Z,15.85
2018-09-12T07:12:43.345Z,15.84
2018-09-12T07:13:43.315Z,15.90
2018-09-12T07:14:43.351Z,15.87
2018-09-12T07:15:43.303Z,15.90
2018-09-12T07:16:43.279Z,15.91
2018-09-12T07:17:43.283Z,15.88
2018-09-12T07:18:43.264Z,15.83
2018-09-12T07:19:43.286Z,15.85
2018-09-12T07:20:43.241Z,15.84
2018-09-12T07:21:43.234Z,15.84
2018-09-12T07:22:43.215Z,15.81
2018-09-12T07:23:43.205Z,15.78
2018-09-12T07:24:43.276Z,15.87
2018-09-12T07:25:43.189Z,15.87
2018-09-12T07:26:43.169Z,15.92
2018-09-12T07:27:43.228Z,16.10
2018-09-12T07:28:43.149Z,16.21
2018-09-12T07:29:43.173Z,16.13
2018-09-12T07:30:43.135Z,16.31
2018-09-12T07:31:43.116Z,16.41
2018-09-12T07:32:43.107Z,16.37
2018-09-12T07:33:43.092Z,16.36
2018-09-12T07:34:43.121Z,16.41
2018-09-12T07:35:43.067Z,16.43
2018-09-12T07:36:43.061Z,16.55
2018-09-12T07:37:43.051Z,16.66
2018-09-12T07:38:43.040Z,16.80
2018-09-12T07:39:43.055Z,16.83
2018-09-12T07:40:43.015Z,16.84
2018-09-12T07:41:43.053Z,16.86
2018-09-12T07:42:42.999Z,17.09
2018-09-12T07:43:42.979Z,17.32
2018-09-12T07:44:43.015Z,17.24
2018-09-12T07:45:42.966Z,17.05
2018-09-12T07:46:42.962Z,16.97
2018-09-12T07:47:42.958Z,16.92
2018-09-12T07:48:42.932Z,16.97
2018-09-12T07:49:42.966Z,16.83
2018-09-12T07:50:42.942Z,16.74
2018-09-12T07:51:42.901Z,16.68
2018-09-12T07:52:42.894Z,16.74
2018-09-12T07:53:42.878Z,16.73
2018-09-12T07:54:42.864Z,16.69
2018-09-12T07:55:42.896Z,16.58
2018-09-12T07:56:42.865Z,16.41
2018-09-12T07:57:42.876Z,16.41
2018-09-12T07:58:42.820Z,16.54
2018-09-12T07:59:42.815Z,16.51
2018-09-12T08:00:42.839Z,16.54
2018-09-12T08:01:42.799Z,16.43
2018-09-12T08:02:42.805Z,16.36
2018-09-12T08:03:42.765Z,16.39
2018-09-12T08:04:42.755Z,16.34
2018-09-12T08:05:42.776Z,16.39
2018-09-12T08:06:42.732Z,16.36
2018-09-12T08:07:42.739Z,16.28
2018-09-12T08:08:42.711Z,16.32
2018-09-12T08:09:42.703Z,16.29
2018-09-12T08:10:42.725Z,16.37
2018-09-12T08:11:42.710Z,16.40
2018-09-12T08:12:42.667Z,16.37
2018-09-12T08:13:42.658Z,16.31
2018-09-12T08:14:42.647Z,16.40
2018-09-12T08:15:42.938Z,16.28
2018-09-12T08:16:42.652Z,16.25
2018-09-12T08:17:42.612Z,16.34
2018-09-12T08:18:42.607Z,16.31
2018-09-12T08:19:42.583Z,16.34
2018-09-12T08:20:42.566Z,16.31
2018-09-12T08:21:42.591Z,16.37
2018-09-12T08:22:42.550Z,16.32
2018-09-12T08:23:42.532Z,16.41
2018-09-12T08:24:42.567Z,16.43
2018-09-12T08:25:42.520Z,16.43
2018-09-12T08:26:42.557Z,16.40
2018-09-12T08:27:42.497Z,16.49
2018-09-12T08:28:42.485Z,16.61
2018-09-12T08:29:42.508Z,16.69
2018-09-12T08:30:42.461Z,16.74
2018-09-12T08:31:42.480Z,16.73
2018-09-12T08:32:42.438Z,16.73
2018-09-12T08:33:42.430Z,16.80
2018-09-12T08:34:42.454Z,16.87
2018-09-12T08:35:42.394Z,16.87
2018-09-12T08:36:42.444Z,16.84
2018-09-12T08:37:42.384Z,16.84
2018-09-12T08:38:42.362Z,16.94
2018-09-12T08:39:42.357Z,16.97
2018-09-12T08:40:42.341Z,16.94
2018-09-12T08:41:42.366Z,16.97
2018-09-12T08:42:42.387Z,16.92
2018-09-12T08:43:42.308Z,16.89
2018-09-12T08:44:42.300Z,16.89
2018-09-12T08:45:42.305Z,16.99
2018-09-12T08:46:42.320Z,16.97
2018-09-12T08:47:42.279Z,16.95
2018-09-12T08:48:42.289Z,16.97
2018-09-12T08:49:42.248Z,16.99
2018-09-12T08:50:42.246Z,17.13
2018-09-12T08:51:42.266Z,16.99
2018-09-12T08:52:42.222Z,16.95
2018-09-12T08:53:42.216Z,16.95
2018-09-12T08:54:42.230Z,17.07
2018-09-12T08:55:42.184Z,17.02
2018-09-12T08:56:42.244Z,17.09
2018-09-12T08:57:42.160Z,17.22
2018-09-12T08:58:42.155Z,17.30
2018-09-12T08:59:42.176Z,17.37
2018-09-12T09:00:42.126Z,17.32
2018-09-12T09:01:42.276Z,17.42
2018-09-12T09:02:42.152Z,17.24
2018-09-12T09:03:42.100Z,17.17
2018-09-12T09:04:42.094Z,17.19
2018-09-12T09:05:42.067Z,17.30
2018-09-12T09:06:42.061Z,17.16
2018-09-12T09:07:42.089Z,17.22
2018-09-12T09:08:42.040Z,17.30
2018-09-12T09:09:42.026Z,17.17
2018-09-12T09:10:42.024Z,17.22
2018-09-12T09:11:41.999Z,17.14
2018-09-12T09:12:42.017Z,17.04
2018-09-12T09:13:41.979Z,17.19
2018-09-12T09:14:41.999Z,17.04
2018-09-12T09:15:41.990Z,17.17
2018-09-12T09:16:41.943Z,17.34
2018-09-12T09:17:41.935Z,17.37
2018-09-12T09:18:41.926Z,17.41
2018-09-12T09:19:41.913Z,17.41
2018-09-12T09:20:41.946Z,17.52
2018-09-12T09:21:41.898Z,17.60
2018-09-12T09:22:41.884Z,17.84
2018-09-12T09:23:41.910Z,18.03
2018-09-12T09:24:41.864Z,18.08
2018-09-12T09:25:41.891Z,18.28
2018-09-12T09:26:41.842Z,18.53
2018-09-12T09:27:41.824Z,18.86
2018-09-12T09:28:41.820Z,19.00
2018-09-12T09:29:41.804Z,19.12
2018-09-12T09:30:41.832Z,18.71
2018-09-12T09:31:41.784Z,18.61
2018-09-12T09:32:41.792Z,18.26
2018-09-12T09:33:41.770Z,18.15
2018-09-12T09:34:41.748Z,18.11
2018-09-12T09:35:42.151Z,18.30
2018-09-12T09:36:41.728Z,18.63
2018-09-12T09:37:41.720Z,18.76
2018-09-12T09:38:41.713Z,18.71
2018-09-12T09:39:41.703Z,18.64
2018-09-12T09:40:41.724Z,18.79
2018-09-12T09:41:41.670Z,18.94
2018-09-12T09:42:41.686Z,18.78
2018-09-12T09:43:41.648Z,18.60
2018-09-12T09:44:41.650Z,18.41
2018-09-12T09:45:41.686Z,18.41
2018-09-12T09:46:41.620Z,18.43
2018-09-12T09:47:41.602Z,18.34
2018-09-12T09:48:41.596Z,18.23
2018-09-12T09:49:41.586Z,18.16
2018-09-12T09:50:41.611Z,18.18
2018-09-12T09:51:41.563Z,18.21
2018-09-12T09:52:41.550Z,18.09
2018-09-12T09:53:41.535Z,18.12
2018-09-12T09:54:41.579Z,18.27
2018-09-12T09:55:41.553Z,18.33
2018-09-12T09:56:41.499Z,18.31
2018-09-12T09:57:41.488Z,18.30
2018-09-12T09:58:41.479Z,18.21
2018-09-12T09:59:41.457Z,18.23
2018-09-12T10:00:41.486Z,18.26
2018-09-12T10:01:41.485Z,18.18
2018-09-12T10:02:41.427Z,18.18
2018-09-12T10:03:41.421Z,18.21
2018-09-12T10:04:41.401Z,18.12
2018-09-12T10:05:41.403Z,18.15
2018-09-12T10:06:41.417Z,18.09
2018-09-12T10:07:41.392Z,18.18
2018-09-12T10:08:41.395Z,18.21
2018-09-12T10:09:41.349Z,18.28
2018-09-12T10:10:41.375Z,18.23
2018-09-12T10:11:41.342Z,18.26
2018-09-12T10:12:41.321Z,18.13
2018-09-12T10:13:41.321Z,18.23
2018-09-12T10:14:41.300Z,18.13
2018-09-12T10:15:41.349Z,18.13
2018-09-12T10:16:41.271Z,18.18
2018-09-12T10:17:41.257Z,18.18
2018-09-12T10:18:41.253Z,18.09
2018-09-12T10:19:41.251Z,18.02
2018-09-12T10:20:41.281Z,17.97
2018-09-12T10:21:41.216Z,17.97
2018-09-12T10:22:41.209Z,18.02
2018-09-12T10:23:41.192Z,18.05
2018-09-12T10:24:41.180Z,18.13
2018-09-12T10:25:41.216Z,18.08
2018-09-12T10:26:41.171Z,18.12
2018-09-12T10:27:41.156Z,18.18
2018-09-12T10:28:41.153Z,18.23
2018-09-12T10:29:41.170Z,18.13
2018-09-12T10:30:41.143Z,18.05
2018-09-12T10:31:41.169Z,18.13
2018-09-12T10:32:41.139Z,18.34
2018-09-12T10:33:41.095Z,18.34
2018-09-12T10:34:41.089Z,18.41
2018-09-12T10:35:41.071Z,18.39
2018-09-12T10:36:41.098Z,18.52
2018-09-12T10:37:41.085Z,18.48
2018-09-12T10:38:41.035Z,18.45
2018-09-12T10:39:41.061Z,18.39
2018-09-12T10:40:41.013Z,18.45
2018-09-12T10:41:41.011Z,18.34
2018-09-12T10:42:41.016Z,18.23
2018-09-12T10:43:40.977Z,18.09
2018-09-12T10:44:40.963Z,18.05
2018-09-12T10:45:40.959Z,17.90
2018-09-12T10:46:40.943Z,17.80
2018-09-12T10:47:40.967Z,17.73
2018-09-12T10:48:40.927Z,17.69
2018-09-12T10:49:40.911Z,17.63
2018-09-12T10:50:40.900Z,17.59
2018-09-12T10:51:40.892Z,17.49
2018-09-12T10:52:40.909Z,17.49
2018-09-12T10:53:40.876Z,17.54
2018-09-12T10:54:40.853Z,17.68
2018-09-12T10:55:40.847Z,17.68
2018-09-12T10:56:40.827Z,17.65
2018-09-12T10:57:40.846Z,17.63
2018-09-12T10:58:40.807Z,17.68
2018-09-12T10:59:40.825Z,17.76
2018-09-12T11:00:40.784Z,17.68
2018-09-12T11:01:40.762Z,17.69
2018-09-12T11:02:40.750Z,17.72
2018-09-12T11:03:40.751Z,17.65
2018-09-12T11:04:40.787Z,17.60
2018-09-12T11:05:40.724Z,17.56
2018-09-12T11:06:40.717Z,17.57
2018-09-12T11:07:40.704Z,17.57
2018-09-12T11:08:40.698Z,17.60
2018-09-12T11:09:40.715Z,17.47
2018-09-12T11:10:40.701Z,17.41
2018-09-12T11:11:40.649Z,17.34
2018-09-12T11:12:40.643Z,17.22
2018-09-12T11:13:40.635Z,17.04
2018-09-12T11:14:40.656Z,16.99
2018-09-12T11:15:40.615Z,16.83
2018-09-12T11:16:40.599Z,16.83
2018-09-12T11:17:40.591Z,16.79
2018-09-12T11:18:40.622Z,16.76
2018-09-12T11:19:40.614Z,16.77
2018-09-12T11:20:40.561Z,16.95
2018-09-12T11:21:40.550Z,17.01
2018-09-12T11:22:40.534Z,17.23
2018-09-12T11:23:40.524Z,17.35
2018-09-12T11:24:40.556Z,17.38
2018-09-12T11:25:40.504Z,17.65
2018-09-12T11:26:40.491Z,17.71
2018-09-12T11:27:40.481Z,17.76
2018-09-12T11:28:40.557Z,17.56
2018-09-12T11:29:40.509Z,17.57
2018-09-12T11:30:40.549Z,17.41
2018-09-12T11:31:40.447Z,17.32
2018-09-12T11:32:40.435Z,17.14
2018-09-12T11:33:40.429Z,17.04
2018-09-12T11:34:41.301Z,16.92
2018-09-12T11:35:40.416Z,16.83
2018-09-12T11:36:40.383Z,16.86
2018-09-12T11:37:40.621Z,16.76
2018-09-12T11:38:40.623Z,16.82
2018-09-12T11:39:40.389Z,16.79
2018-09-12T11:40:40.422Z,16.65
2018-09-12T11:41:40.616Z,16.61
2018-09-12T11:42:40.417Z,16.49
2018-09-12T11:43:40.394Z,16.40
2018-09-12T11:44:40.351Z,16.40
2018-09-12T11:45:40.713Z,16.47
2018-09-12T11:46:40.735Z,16.44
2018-09-12T11:47:40.326Z,16.44
2018-09-12T11:48:40.380Z,16.44
2018-09-12T11:49:40.355Z,16.51
2018-09-12T11:50:40.239Z,16.55
2018-09-12T11:51:40.833Z,16.58
2018-09-12T11:52:40.630Z,16.49
2018-09-12T11:53:40.622Z,16.47
2018-09-12T11:54:40.186Z,16.68
2018-09-12T11:55:40.599Z,16.66
2018-09-12T11:56:40.531Z,16.69
2018-09-12T11:57:40.589Z,16.74
2018-09-12T11:58:40.383Z,16.74
2018-09-12T11:59:40.262Z,16.76
2018-09-12T12:00:40.127Z,16.80
2018-09-12T12:01:40.136Z,16.73
2018-09-12T12:02:40.086Z,16.76
2018-09-12T12:03:40.072Z,16.80
2018-09-12T12:04:40.065Z,16.87
2018-09-12T12:05:40.052Z,16.86
2018-09-12T12:06:40.075Z,16.97
2018-09-12T12:07:40.030Z,17.13
2018-09-12T12:08:40.013Z,17.19
2018-09-12T12:09:40.010Z,17.17
2018-09-12T12:10:39.998Z,17.22
2018-09-12T12:11:40.026Z,17.39
2018-09-12T12:12:39.979Z,17.56
2018-09-12T12:13:39.969Z,17.76
2018-09-12T12:14:39.958Z,17.95
2018-09-12T12:15:39.948Z,18.16
2018-09-12T12:16:40.028Z,18.28
2018-09-12T12:17:39.912Z,18.34
2018-09-12T12:18:39.908Z,18.27
2018-09-12T12:19:39.901Z,17.98
2018-09-12T12:20:39.880Z,17.91
2018-09-12T12:21:39.921Z,17.82
2018-09-12T12:22:39.864Z,17.97
2018-09-12T12:23:39.845Z,17.90
2018-09-12T12:24:39.847Z,17.86
2018-09-12T12:25:39.825Z,17.80
2018-09-12T12:26:39.876Z,17.84
2018-09-12T12:27:39.856Z,18.03
2018-09-12T12:28:39.797Z,17.91
2018-09-12T12:29:39.780Z,17.90
2018-09-12T12:30:39.773Z,18.06
2018-09-12T12:31:39.803Z,18.19
2018-09-12T12:32:39.753Z,18.27
2018-09-12T12:33:39.747Z,18.18
2018-09-12T12:34:39.779Z,18.21
2018-09-12T12:35:39.723Z,18.15
2018-09-12T12:36:39.729Z,18.18
2018-09-12T12:37:39.697Z,18.06
2018-09-12T12:38:39.687Z,18.24
2018-09-12T12:39:39.736Z,18.30
2018-09-12T12:40:39.704Z,18.11
2018-09-12T12:41:39.661Z,18.02
2018-09-12T12:42:39.653Z,17.88
2018-09-12T12:43:39.658Z,17.82
2018-09-12T12:44:39.624Z,17.75
2018-09-12T12:45:39.647Z,17.65
2018-09-12T12:46:39.604Z,17.54
2018-09-12T12:47:39.584Z,17.54
2018-09-12T12:48:39.589Z,17.49
2018-09-12T12:49:39.634Z,17.41
2018-09-12T12:50:39.552Z,17.38
2018-09-12T12:51:39.558Z,17.34
2018-09-12T12:52:39.527Z,17.38